createdAt,value
2018-01-23T00:01:24.059Z,13.83
2018-01-23T00:03:51.469Z,24.03
2018-01-23T00:06:18.906Z,17.00
2018-01-23T00:08:46.449Z,17.40
2018-01-23T00:11:13.886Z,17.43
2018-01-23T00:13:41.293Z,12.00
2018-01-23T00:16:08.816Z,16.07
2018-01-23T00:18:36.276Z,19.70
2018-01-23T00:21:03.712Z,16.43
2018-01-23T00:23:31.192Z,35.33
2018-01-23T00:25:58.652Z,16.03
2018-01-23T00:28:26.419Z,29.20
2018-01-23T00:30:53.849Z,12.70
2018-01-23T00:33:21.269Z,23.63
2018-01-23T00:35:48.701Z,21.20
2018-01-23T00:38:16.248Z,23.23
2018-01-23T00:40:43.676Z,12.93
2018-01-23T00:43:11.170Z,16.70
2018-01-23T00:45:38.930Z,14.40
2018-01-23T00:48:06.384Z,11.57
2018-01-23T00:50:33.831Z,12.00
2018-01-23T00:53:01.258Z,29.90
2018-01-23T00:55:29.440Z,18.20
2018-01-23T00:57:57.145Z,26.23
2018-01-23T01:00:24.601Z,17.50
2018-01-23T01:02:52.028Z,27.60
2018-01-23T01:05:19.440Z,10.40
2018-01-23T01:07:46.865Z,17.50
2018-01-23T01:10:14.434Z,15.17
2018-01-23T01:12:41.865Z,17.70
2018-01-23T01:15:09.350Z,15.20
2018-01-23T01:17:36.985Z,21.13
2018-01-23T01:20:04.473Z,22.77
2018-01-23T01:22:31.900Z,10.70
2018-01-23T01:24:59.388Z,27.33
2018-01-23T01:27:26.817Z,20.20
2018-01-23T01:29:54.396Z,13.80
2018-01-23T01:32:21.833Z,17.53
2018-01-23T01:34:49.259Z,22.23
2018-01-23T01:37:16.688Z,12.57
2018-01-23T01:39:44.109Z,18.67
2018-01-23T01:42:11.693Z,17.93
2018-01-23T01:44:39.457Z,18.77
2018-01-23T01:47:06.893Z,14.73
2018-01-23T01:49:34.316Z,15.73
2018-01-23T01:52:01.754Z,16.70
2018-01-23T01:54:29.178Z,18.07
2018-01-23T01:56:56.632Z,19.37
2018-01-23T01:59:24.107Z,17.53
2018-01-23T02:01:51.551Z,33.47
2018-01-23T02:04:18.969Z,11.50
2018-01-23T02:06:47.161Z,15.27
2018-01-23T02:09:14.652Z,14.83
2018-01-23T02:11:42.097Z,18.43
2018-01-23T02:14:09.515Z,10.20
2018-01-23T02:16:36.945Z,12.27
2018-01-23T02:19:04.381Z,12.30
2018-01-23T02:21:31.841Z,17.13
2018-01-23T02:23:59.270Z,18.00
2018-01-23T02:26:26.725Z,20.03
2018-01-23T02:28:54.182Z,18.63
2018-01-23T02:31:21.604Z,18.57
2018-01-23T02:33:49.134Z,8.80
2018-01-23T02:36:16.557Z,10.63
2018-01-23T02:38:43.998Z,16.70
2018-01-23T02:41:12.390Z,15.57
2018-01-23T02:43:39.831Z,21.70
2018-01-23T02:46:08.017Z,16.03
2018-01-23T02:48:35.517Z,10.53
2018-01-23T02:51:02.940Z,19.00
2018-01-23T02:53:30.373Z,15.50
2018-01-23T02:55:57.798Z,14.80
2018-01-23T02:58:25.345Z,25.67
2018-01-23T03:00:52.769Z,12.27
2018-01-23T03:03:20.268Z,17.63
2018-01-23T03:05:47.907Z,24.50
2018-01-23T03:08:15.406Z,12.63
2018-01-23T03:10:42.941Z,28.97
2018-01-23T03:13:10.590Z,20.00
2018-01-23T03:15:38.147Z,12.20
2018-01-23T03:18:05.625Z,14.83
2018-01-23T03:20:33.076Z,13.60
2018-01-23T03:23:00.517Z,14.50
2018-01-23T03:25:28.001Z,15.00
2018-01-23T03:27:55.761Z,12.83
2018-01-23T03:30:23.191Z,23.30
2018-01-23T03:32:50.629Z,17.70
2018-01-23T03:35:18.050Z,13.17
2018-01-23T03:37:45.493Z,29.90
2018-01-23T03:40:12.949Z,19.87
2018-01-23T03:42:40.699Z,18.43
2018-01-23T03:45:08.105Z,16.17
2018-01-23T03:47:35.525Z,22.13
2018-01-23T03:50:03.191Z,17.03
2018-01-23T03:52:30.825Z,33.27
2018-01-23T03:54:58.314Z,18.53
2018-01-23T03:57:25.875Z,17.57
2018-01-23T03:59:53.637Z,20.67
2018-01-23T04:02:21.094Z,12.63
2018-01-23T04:04:48.857Z,27.30
2018-01-23T04:07:16.629Z,20.63
2018-01-23T04:09:44.074Z,17.93
2018-01-23T04:12:11.498Z,21.77
2018-01-23T04:14:38.994Z,17.27
2018-01-23T04:17:06.425Z,23.13
2018-01-23T04:19:33.858Z,17.13
2018-01-23T04:22:01.371Z,24.67
2018-01-23T04:24:29.016Z,15.53
2018-01-23T04:26:56.598Z,22.23
2018-01-23T04:29:24.038Z,20.53
2018-01-23T04:31:51.509Z,28.10
2018-01-23T04:34:18.950Z,28.43
2018-01-23T04:36:46.374Z,27.17
2018-01-23T04:39:13.814Z,15.90
2018-01-23T04:41:41.342Z,19.63
2018-01-23T04:44:08.782Z,15.73
2018-01-23T04:46:36.210Z,25.37
2018-01-23T04:49:03.717Z,21.17
2018-01-23T04:51:31.146Z,23.70
2018-01-23T04:53:58.640Z,16.03
2018-01-23T04:56:26.070Z,18.27
2018-01-23T04:58:53.505Z,22.03
2018-01-23T05:01:21.010Z,14.13
2018-01-23T05:03:48.667Z,22.63
2018-01-23T05:06:16.099Z,25.13
2018-01-23T05:08:43.586Z,28.10
2018-01-23T05:11:11.017Z,18.00
2018-01-23T05:13:38.605Z,16.70
2018-01-23T05:16:06.238Z,19.13
2018-01-23T05:18:33.662Z,17.63
2018-01-23T05:21:01.283Z,18.03
2018-01-23T05:23:29.657Z,19.43
2018-01-23T05:25:57.126Z,18.50
2018-01-23T05:28:24.753Z,27.43
2018-01-23T05:30:52.193Z,16.93
2018-01-23T05:33:20.381Z,18.93
2018-01-23T05:35:47.822Z,16.90
2018-01-23T05:38:15.334Z,15.53
2018-01-23T05:40:42.979Z,19.90
2018-01-23T05:43:10.455Z,19.47
2018-01-23T05:45:37.899Z,16.57
2018-01-23T05:48:05.371Z,23.70
2018-01-23T05:50:32.926Z,30.20
2018-01-23T05:53:00.689Z,22.63
2018-01-23T05:55:28.154Z,17.10
2018-01-23T05:57:55.613Z,30.17
2018-01-23T06:00:23.073Z,19.20
2018-01-23T06:02:50.526Z,15.10
2018-01-23T06:05:17.974Z,20.77
2018-01-23T06:07:45.398Z,22.73
2018-01-23T06:10:12.897Z,27.93
2018-01-23T06:12:40.318Z,21.50
2018-01-23T06:15:07.754Z,21.23
2018-01-23T06:17:35.178Z,23.57
2018-01-23T06:20:02.613Z,16.13
2018-01-23T06:22:30.189Z,22.80
2018-01-23T06:24:57.830Z,27.73
2018-01-23T06:27:25.402Z,28.60
2018-01-23T06:29:52.870Z,27.50
2018-01-23T06:32:20.293Z,24.40
2018-01-23T06:34:47.717Z,24.83
2018-01-23T06:37:15.145Z,20.63
2018-01-23T06:39:42.701Z,18.90
2018-01-23T06:42:10.458Z,18.87
2018-01-23T06:44:37.885Z,19.43
2018-01-23T06:47:05.382Z,18.80
2018-01-23T06:49:32.814Z,19.80
2018-01-23T06:52:00.297Z,15.80
2018-01-23T06:54:27.757Z,15.83
2018-01-23T06:56:55.213Z,27.73
2018-01-23T06:59:22.673Z,19.50
2018-01-23T07:01:50.111Z,16.10
2018-01-23T07:04:17.590Z,18.40
2018-01-23T07:06:45.046Z,18.53
2018-01-23T07:09:12.682Z,15.23
2018-01-23T07:11:40.270Z,17.00
2018-01-23T07:14:07.893Z,21.57
2018-01-23T07:16:35.368Z,26.90
2018-01-23T07:19:02.845Z,19.07
2018-01-23T07:21:30.412Z,19.50
2018-01-23T07:23:58.310Z,17.10
2018-01-23T07:26:25.745Z,17.07
2018-01-23T07:28:53.293Z,20.03
2018-01-23T07:31:20.849Z,14.63
2018-01-23T07:33:48.277Z,20.70
2018-01-23T07:36:15.709Z,18.20
2018-01-23T07:38:43.216Z,22.07
2018-01-23T07:41:10.686Z,24.30
2018-01-23T07:43:38.313Z,14.90
2018-01-23T07:46:05.822Z,35.23
2018-01-23T07:48:33.266Z,24.60
2018-01-23T07:51:01.111Z,24.93
2018-01-23T07:53:28.530Z,21.50
2018-01-23T07:55:56.041Z,24.83
2018-01-23T07:58:23.502Z,19.87
2018-01-23T08:00:51.133Z,21.43
2018-01-23T08:03:18.608Z,12.30
2018-01-23T08:05:46.177Z,34.07
2018-01-23T08:08:13.645Z,17.70
2018-01-23T08:10:41.102Z,15.30
2018-01-23T08:13:08.526Z,18.90
2018-01-23T08:15:35.949Z,19.17
2018-01-23T08:18:03.376Z,20.87
2018-01-23T08:20:30.797Z,17.47
2018-01-23T08:22:58.306Z,13.27
2018-01-23T08:25:25.750Z,17.50
2018-01-23T08:27:53.185Z,21.47
2018-01-23T08:30:20.665Z,16.63
2018-01-23T08:32:48.221Z,23.97
2018-01-23T08:35:15.852Z,23.63
2018-01-23T08:37:43.290Z,22.57
2018-01-23T08:40:11.686Z,16.30
2018-01-23T08:42:39.205Z,19.90
2018-01-23T08:45:06.636Z,27.47
2018-01-23T08:47:34.075Z,20.73
2018-01-23T08:50:01.519Z,19.93
2018-01-23T08:52:29.101Z,17.13
2018-01-23T08:54:56.530Z,16.03
2018-01-23T08:57:24.017Z,26.27
2018-01-23T08:59:51.450Z,19.97
2018-01-23T09:02:18.888Z,24.90
2018-01-23T09:04:46.310Z,16.80
2018-01-23T09:07:13.777Z,18.30
2018-01-23T09:09:41.218Z,15.50
2018-01-23T09:12:08.685Z,24.13
2018-01-23T09:14:36.225Z,23.77
2018-01-23T09:17:03.881Z,13.63
2018-01-23T09:19:31.354Z,15.90
2018-01-23T09:21:58.910Z,14.40
2018-01-23T09:24:26.370Z,12.30
2018-01-23T09:26:53.789Z,13.13
2018-01-23T09:29:21.218Z,23.10
2018-01-23T09:31:49.630Z,15.40
2018-01-23T09:34:17.057Z,11.50
2018-01-23T09:36:44.573Z,9.37
2018-01-23T09:39:12.033Z,28.87
2018-01-23T09:41:39.458Z,17.83
2018-01-23T09:44:06.886Z,12.00
2018-01-23T09:46:34.331Z,12.10
2018-01-23T09:49:01.866Z,15.30
2018-01-23T09:51:29.289Z,11.47
2018-01-23T09:53:56.721Z,17.50
2018-01-23T09:56:24.146Z,19.43
2018-01-23T09:58:51.615Z,16.17
2018-01-23T10:01:19.061Z,18.13
2018-01-23T10:03:46.623Z,11.97
2018-01-23T10:06:14.249Z,17.20
2018-01-23T10:08:41.725Z,13.63
2018-01-23T10:11:09.201Z,16.60
2018-01-23T10:13:36.641Z,14.37
2018-01-23T10:16:04.147Z,17.50
2018-01-23T10:18:31.582Z,12.87
2018-01-23T10:20:59.125Z,11.83
2018-01-23T10:23:26.558Z,14.33
2018-01-23T10:25:53.981Z,8.97
2018-01-23T10:28:22.199Z,19.00
2018-01-23T10:30:49.614Z,10.97
2018-01-23T10:33:18.878Z,8.60
2018-01-23T10:35:46.511Z,12.87
2018-01-23T10:38:14.093Z,6.30
2018-01-23T10:40:41.861Z,14.53
2018-01-23T10:43:09.511Z,23.53
2018-01-23T10:45:37.090Z,15.27
2018-01-23T10:48:04.733Z,12.53
2018-01-23T10:50:32.246Z,12.73
2018-01-23T10:52:59.666Z,10.63
2018-01-23T10:55:27.125Z,9.63
2018-01-23T10:57:54.582Z,13.83
2018-01-23T11:00:22.451Z,9.93
2018-01-23T11:02:50.209Z,14.13
2018-01-23T11:05:17.634Z,10.60
2018-01-23T11:07:45.125Z,25.83
2018-01-23T11:10:12.586Z,18.90
2018-01-23T11:12:40.014Z,23.87
2018-01-23T11:15:07.505Z,14.27
2018-01-23T11:17:35.137Z,13.03
2018-01-23T11:20:02.722Z,11.83
2018-01-23T11:22:30.188Z,23.60
2018-01-23T11:24:57.635Z,12.10
2018-01-23T11:27:25.103Z,7.67
2018-01-23T11:29:52.539Z,8.03
2018-01-23T11:32:20.014Z,9.13
2018-01-23T11:34:47.445Z,5.93
2018-01-23T11:37:14.929Z,9.10
2018-01-23T11:39:42.578Z,7.90
2018-01-23T11:42:10.054Z,5.37
2018-01-23T11:44:37.551Z,3.77
2018-01-23T11:47:04.975Z,7.47
2018-01-23T11:49:32.409Z,18.57
2018-01-23T11:51:59.985Z,5.60
2018-01-23T11:54:27.446Z,6.70
2018-01-23T11:56:55.206Z,7.50
2018-01-23T11:59:22.639Z,9.70
2018-01-23T12:01:50.062Z,8.87
2018-01-23T12:04:17.582Z,17.30
2018-01-23T12:06:45.341Z,17.83
2018-01-23T12:09:12.989Z,6.97
2018-01-23T12:11:40.432Z,11.10
2018-01-23T12:14:07.985Z,5.90
2018-01-23T12:16:35.401Z,10.90
2018-01-23T12:19:02.946Z,9.83
2018-01-23T12:21:30.397Z,12.80
2018-01-23T12:23:57.826Z,5.00
2018-01-23T12:26:25.250Z,14.53
2018-01-23T12:28:52.678Z,31.33
2018-01-23T12:31:20.161Z,11.50
2018-01-23T12:33:47.691Z,6.23
2018-01-23T12:36:15.110Z,8.20
2018-01-23T12:38:42.524Z,9.70
2018-01-23T12:41:09.966Z,9.27
2018-01-23T12:43:37.426Z,13.43
2018-01-23T12:46:05.166Z,5.43
2018-01-23T12:48:33.357Z,5.13
2018-01-23T12:51:00.816Z,7.40
2018-01-23T12:53:28.236Z,4.70
2018-01-23T12:55:55.735Z,4.30
2018-01-23T12:58:23.345Z,8.50
2018-01-23T13:00:51.862Z,5.80
2018-01-23T13:03:19.334Z,2.50
2018-01-23T13:05:46.778Z,8.10
2018-01-23T13:08:14.198Z,18.17
2018-01-23T13:10:41.629Z,10.80
2018-01-23T13:13:09.171Z,7.03
2018-01-23T13:15:36.808Z,2.63
2018-01-23T13:18:04.229Z,6.90
2018-01-23T13:20:32.432Z,4.63
2018-01-23T13:22:59.858Z,6.63
2018-01-23T13:25:28.057Z,3.37
2018-01-23T13:27:55.566Z,5.90
2018-01-23T13:30:23.161Z,4.10
2018-01-23T13:32:50.675Z,12.93
2018-01-23T13:35:18.343Z,6.00
2018-01-23T13:37:45.892Z,4.90
2018-01-23T13:40:13.336Z,6.00
2018-01-23T13:42:40.755Z,5.43
2018-01-23T13:45:08.181Z,3.40
2018-01-23T13:47:35.607Z,10.20
2018-01-23T13:50:03.137Z,4.73
2018-01-23T13:52:30.641Z,9.70
2018-01-23T13:54:58.410Z,4.47
2018-01-23T13:57:25.951Z,8.37
2018-01-23T13:59:53.532Z,5.50
2018-01-23T14:02:21.049Z,5.97
2018-01-23T14:04:48.478Z,4.47
2018-01-23T14:07:16.928Z,8.10
2018-01-23T14:09:44.349Z,6.60
2018-01-23T14:12:11.782Z,5.10
2018-01-23T14:14:39.969Z,3.77
2018-01-23T14:17:07.410Z,3.10
2018-01-23T14:19:35.602Z,4.17
2018-01-23T14:22:04.013Z,11.67
2018-01-23T14:24:31.586Z,13.73
2018-01-23T14:26:59.018Z,9.40
2018-01-23T14:29:26.502Z,5.93
2018-01-23T14:31:53.942Z,4.30
2018-01-23T14:34:21.366Z,6.00
2018-01-23T14:36:48.798Z,5.80
2018-01-23T14:39:16.216Z,6.00
2018-01-23T14:41:43.706Z,6.47
2018-01-23T14:44:11.245Z,7.10
2018-01-23T14:46:38.894Z,5.53
2018-01-23T14:49:06.344Z,4.23
2018-01-23T14:51:33.878Z,10.43
2018-01-23T14:54:01.301Z,5.53
2018-01-23T14:56:28.851Z,7.47
2018-01-23T14:58:56.478Z,6.17
2018-01-23T15:01:23.916Z,10.13
2018-01-23T15:03:52.137Z,11.63
2018-01-23T15:06:19.909Z,4.77
2018-01-23T15:08:47.325Z,9.10
2018-01-23T15:11:15.060Z,6.00
2018-01-23T15:13:42.486Z,9.60
2018-01-23T15:16:10.046Z,4.97
2018-01-23T15:18:37.739Z,6.03
2018-01-23T15:21:05.173Z,11.70
2018-01-23T15:23:32.608Z,11.53
2018-01-23T15:26:00.036Z,4.97
2018-01-23T15:28:28.213Z,8.47
2018-01-23T15:30:56.405Z,3.83
2018-01-23T15:33:23.957Z,9.40
2018-01-23T15:35:51.381Z,4.00
2018-01-23T15:38:19.005Z,9.07
2018-01-23T15:40:46.468Z,6.60
2018-01-23T15:43:13.925Z,10.13
2018-01-23T15:45:41.377Z,6.73
2018-01-23T15:48:08.843Z,5.30
2018-01-23T15:50:36.256Z,6.77
2018-01-23T15:53:03.694Z,3.93
2018-01-23T15:55:31.209Z,6.17
2018-01-23T15:57:58.677Z,5.43
2018-01-23T16:00:26.306Z,4.03
2018-01-23T16:02:53.898Z,8.73
2018-01-23T16:05:21.321Z,4.67
2018-01-23T16:07:48.758Z,8.00
2018-01-23T16:10:16.181Z,14.13
2018-01-23T16:12:43.633Z,4.03
2018-01-23T16:15:11.185Z,10.40
2018-01-23T16:17:38.617Z,3.53
2018-01-23T16:20:06.107Z,10.23
2018-01-23T16:22:33.746Z,12.33
2018-01-23T16:25:01.223Z,8.70
2018-01-23T16:27:28.666Z,3.70
2018-01-23T16:29:56.238Z,6.80
2018-01-23T16:32:23.666Z,9.00
2018-01-23T16:34:51.087Z,4.77
2018-01-23T16:37:18.513Z,8.40
2018-01-23T16:39:45.978Z,4.20
2018-01-23T16:42:13.433Z,13.90
2018-01-23T16:44:40.866Z,6.57
2018-01-23T16:47:08.454Z,8.50
2018-01-23T16:49:35.902Z,4.47
2018-01-23T16:52:03.361Z,8.57
2018-01-23T16:54:31.227Z,7.63
2018-01-23T16:56:58.845Z,6.10
2018-01-23T16:59:26.323Z,18.30
2018-01-23T17:01:53.809Z,11.00
2018-01-23T17:04:21.246Z,5.23
2018-01-23T17:06:48.717Z,9.03
2018-01-23T17:09:16.182Z,8.17
2018-01-23T17:11:43.606Z,4.63
2018-01-23T17:14:11.046Z,16.37
2018-01-23T17:16:38.570Z,4.60
2018-01-23T17:19:05.983Z,4.73
2018-01-23T17:21:33.406Z,20.73
2018-01-23T17:24:00.893Z,3.97
2018-01-23T17:26:28.319Z,8.60
2018-01-23T17:28:55.848Z,7.57
2018-01-23T17:31:23.306Z,6.57
2018-01-23T17:33:50.736Z,5.90
2018-01-23T17:36:18.208Z,6.13
2018-01-23T17:38:45.668Z,6.63
2018-01-23T17:41:13.092Z,3.77
2018-01-23T17:43:40.575Z,3.40
2018-01-23T17:46:08.049Z,4.20
2018-01-23T17:48:35.501Z,5.93
2018-01-23T17:51:03.463Z,6.63
2018-01-23T17:53:30.950Z,13.37
2018-01-23T17:55:58.373Z,3.87
2018-01-23T17:58:25.861Z,10.10
2018-01-23T18:00:53.310Z,7.83
2018-01-23T18:03:20.760Z,2.40
2018-01-23T18:05:48.187Z,8.10
2018-01-23T18:08:15.785Z,4.57
2018-01-23T18:10:43.409Z,8.40
2018-01-23T18:13:10.906Z,24.67
2018-01-23T18:15:38.467Z,4.80
2018-01-23T18:18:06.097Z,4.63
2018-01-23T18:20:33.618Z,3.60
2018-01-23T18:23:01.146Z,10.10
2018-01-23T18:25:28.597Z,3.00
2018-01-23T18:27:56.006Z,3.67
2018-01-23T18:30:23.517Z,4.03
2018-01-23T18:32:51.136Z,4.27
2018-01-23T18:35:19.563Z,4.70
2018-01-23T18:37:46.986Z,7.20
2018-01-23T18:40:14.573Z,7.50
2018-01-23T18:42:41.994Z,3.80
2018-01-23T18:45:09.493Z,7.07
2018-01-23T18:47:36.918Z,8.60
2018-01-23T18:50:04.349Z,5.10
2018-01-23T18:52:31.768Z,2.20
2018-01-23T18:54:59.332Z,9.63
2018-01-23T18:57:26.853Z,4.87
2018-01-23T18:59:54.430Z,5.00
2018-01-23T19:02:21.915Z,12.23
2018-01-23T19:04:49.471Z,7.77
2018-01-23T19:07:16.933Z,3.47
2018-01-23T19:09:44.684Z,15.63
2018-01-23T19:12:12.502Z,8.10
2018-01-23T19:14:39.943Z,5.43
2018-01-23T19:17:07.356Z,5.13
2018-01-23T19:19:34.803Z,5.97
2018-01-23T19:22:02.217Z,6.37
2018-01-23T19:24:29.653Z,11.50
2018-01-23T19:26:57.101Z,7.00
2018-01-23T19:29:24.652Z,6.30
2018-01-23T19:31:52.073Z,4.57
2018-01-23T19:34:19.589Z,4.77
2018-01-23T19:36:47.418Z,6.97
2018-01-23T19:39:15.107Z,6.47
2018-01-23T19:41:42.565Z,10.40
2018-01-23T19:44:10.012Z,9.43
2018-01-23T19:46:37.473Z,5.13
2018-01-23T19:49:04.897Z,7.80
2018-01-23T19:51:32.398Z,6.33
2018-01-23T19:53:59.821Z,6.97
2018-01-23T19:56:27.254Z,3.33
2018-01-23T19:58:54.680Z,9.73
2018-01-23T20:01:22.142Z,5.57
2018-01-23T20:03:49.676Z,8.30
2018-01-23T20:06:17.146Z,10.60
2018-01-23T20:08:45.517Z,9.27
2018-01-23T20:11:12.982Z,5.27
2018-01-23T20:13:40.741Z,12.10
2018-01-23T20:16:08.188Z,13.27
2018-01-23T20:18:35.605Z,9.67
2018-01-23T20:21:03.118Z,11.67
2018-01-23T20:23:30.533Z,9.10
2018-01-23T20:25:58.035Z,9.80
2018-01-23T20:28:25.456Z,14.63
2018-01-23T20:30:52.954Z,10.00
2018-01-23T20:33:20.378Z,12.00
2018-01-23T20:35:47.809Z,8.27
2018-01-23T20:38:15.320Z,12.20
2018-01-23T20:40:42.749Z,4.80
2018-01-23T20:43:10.169Z,6.93
2018-01-23T20:45:37.609Z,11.80
2018-01-23T20:48:05.034Z,6.90
2018-01-23T20:50:32.457Z,8.33
2018-01-23T20:53:00.690Z,6.90
2018-01-23T20:55:28.313Z,10.93
2018-01-23T20:57:55.910Z,9.47
2018-01-23T21:00:23.533Z,8.63
2018-01-23T21:02:51.051Z,18.90
2018-01-23T21:05:18.593Z,9.67
2018-01-23T21:07:46.444Z,21.00
2018-01-23T21:10:14.119Z,10.50
2018-01-23T21:12:41.542Z,11.63
2018-01-23T21:15:09.229Z,11.50
2018-01-23T21:17:36.797Z,13.97
2018-01-23T21:20:04.259Z,15.17
2018-01-23T21:22:31.908Z,10.10
2018-01-23T21:24:59.329Z,8.63
2018-01-23T21:27:27.530Z,17.67
2018-01-23T21:29:54.953Z,8.97
2018-01-23T21:32:23.393Z,13.20
2018-01-23T21:34:50.817Z,8.50
2018-01-23T21:37:18.249Z,9.50
2018-01-23T21:39:45.772Z,12.33
2018-01-23T21:42:13.206Z,7.50
2018-01-23T21:44:40.621Z,9.33
2018-01-23T21:47:08.142Z,16.63
2018-01-23T21:49:35.790Z,12.30
2018-01-23T21:52:03.361Z,8.17
2018-01-23T21:54:30.794Z,6.93
2018-01-23T21:56:58.278Z,9.03
2018-01-23T21:59:25.737Z,10.20
2018-01-23T22:01:53.380Z,5.70
2018-01-23T22:04:20.797Z,6.20
2018-01-23T22:06:48.329Z,24.80
2018-01-23T22:09:15.873Z,10.03
2018-01-23T22:11:43.301Z,6.00
2018-01-23T22:14:11.613Z,17.13
2018-01-23T22:16:39.081Z,5.77
2018-01-23T22:19:06.684Z,10.70
2018-01-23T22:21:34.049Z,7.13
2018-01-23T22:24:01.542Z,13.13
2018-01-23T22:26:29.005Z,7.50
2018-01-23T22:28:56.421Z,6.87
2018-01-23T22:31:23.853Z,10.23
2018-01-23T22:33:51.278Z,6.93
2018-01-23T22:36:18.738Z,10.13
2018-01-23T22:38:46.189Z,7.27
2018-01-23T22:41:13.684Z,10.27
2018-01-23T22:43:41.984Z,6.60
2018-01-23T22:46:10.514Z,8.37
2018-01-23T22:48:37.954Z,8.07
2018-01-23T22:51:05.497Z,8.87
2018-01-23T22:53:32.928Z,6.20
2018-01-23T22:56:01.199Z,8.33
2018-01-23T22:58:28.634Z,6.87
2018-01-23T23:00:56.079Z,5.83
2018-01-23T23:03:23.550Z,7.57
2018-01-23T23:05:51.086Z,8.17
2018-01-23T23:08:18.554Z,6.13
2018-01-23T23:10:46.010Z,7.33
2018-01-23T23:13:13.454Z,11.70
2018-01-23T23:15:40.873Z,7.97
2018-01-23T23:18:08.387Z,6.60
2018-01-23T23:20:36.152Z,6.10
2018-01-23T23:23:03.784Z,6.37
2018-01-23T23:25:31.374Z,5.10
2018-01-23T23:27:59.014Z,7.83
2018-01-23T23:30:26.432Z,7.77
2018-01-23T23:32:54.679Z,5.40
2018-01-23T23:35:22.126Z,5.67
2018-01-23T23:37:49.568Z,4.93
2018-01-23T23:40:17.050Z,6.53
2018-01-23T23:42:44.801Z,7.43
2018-01-23T23:45:12.267Z,6.57
2018-01-23T23:47:39.697Z,7.57
2018-01-23T23:50:07.186Z,7.50
2018-01-23T23:52:34.637Z,8.90
2018-01-23T23:55:02.098Z,6.10
2018-01-23T23:57:29.535Z,9.80
2018-01-23T23:59:57.005Z,8.40
